Time;durP1;ratioP1;P1;durP2;ratioP2;P2;SDS_P1;SDS_P2;PMS_P1;PMS_P2;Temp;Humidity;BMP_temperature;BMP_pressure;BME280_temperature;BME280_humidity;BME280_pressure;Samples;Min_cycle;Max_cycle;Signal;HPM_P1;HPM_P2
2023/03/28 00:02:04;;;;;;;12.37;11.67;;;3.20;99.90;;;;;;4735642;30;20197;-47
2023/03/28 00:04:30;;;;;;;13.30;12.50;;;3.20;99.90;;;;;;4727988;30;20189;-52
2023/03/28 00:06:56;;;;;;;12.55;11.95;;;3.20;99.90;;;;;;4733210;30;21113;-49
2023/03/28 00:09:21;;;;;;;13.00;12.20;;;3.20;99.90;;;;;;4733812;30;20220;-49
2023/03/28 00:11:47;;;;;;;12.60;11.90;;;3.20;99.90;;;;;;4737142;30;20557;-53
2023/03/28 00:14:14;;;;;;;12.50;11.80;;;3.30;99.90;;;;;;4738628;30;20205;-51
2023/03/28 00:16:44;;;;;;;12.45;11.77;;;3.20;99.90;;;;;;4731148;30;20181;-49
2023/03/28 00:19:15;;;;;;;12.13;11.52;;;3.20;99.90;;;;;;4724861;30;20189;-50
2023/03/28 00:21:47;;;;;;;12.80;12.00;;;3.20;99.90;;;;;;4732815;30;20193;-47
2023/03/28 00:24:15;;;;;;;13.00;11.88;;;3.20;99.90;;;;;;4734596;30;20205;-52
2023/03/28 00:26:42;;;;;;;12.45;11.70;;;3.20;99.90;;;;;;4732506;30;20201;-51
2023/03/28 00:29:14;;;;;;;13.00;12.32;;;3.20;99.90;;;;;;4725821;30;21311;-50
2023/03/28 00:31:40;;;;;;;12.07;11.40;;;3.30;99.90;;;;;;4736518;30;20196;-46
2023/03/28 00:34:06;;;;;;;12.90;11.90;;;3.30;99.90;;;;;;4736831;30;20257;-47
2023/03/28 00:36:32;;;;;;;12.27;11.57;;;3.30;99.90;;;;;;4735062;30;20899;-52
2023/03/28 00:39:05;;;;;;;12.70;12.00;;;3.30;99.90;;;;;;4723113;30;20213;-47
2023/03/28 00:41:34;;;;;;;12.65;11.82;;;3.30;99.90;;;;;;4723314;30;20672;-49
2023/03/28 00:44:00;;;;;;;12.15;11.55;;;3.30;99.90;;;;;;4725541;30;20194;-51
2023/03/28 00:46:40;;;;;;;12.80;12.00;;;3.20;99.90;;;;;;4722971;30;20233;-51
2023/03/28 00:49:14;;;;;;;13.30;12.50;;;3.30;99.90;;;;;;4727768;30;20730;-46
2023/03/28 00:51:57;;;;;;;11.93;11.32;;;3.30;99.90;;;;;;4724878;30;20200;-51
2023/03/28 00:54:28;;;;;;;12.82;12.10;;;3.30;99.90;;;;;;4735000;30;20720;-50
2023/03/28 00:56:57;;;;;;;12.65;12.00;;;3.30;99.90;;;;;;4726225;30;20280;-49
2023/03/28 00:59:27;;;;;;;12.40;11.77;;;3.20;99.90;;;;;;4726498;30;20677;-51
2023/03/28 01:01:54;;;;;;;12.05;11.45;;;3.30;99.90;;;;;;4732243;30;20228;-48
2023/03/28 01:04:23;;;;;;;12.85;12.02;;;3.20;99.90;;;;;;4726606;30;20225;-49
2023/03/28 01:06:53;;;;;;;13.20;12.50;;;3.20;99.90;;;;;;4725297;30;20272;-50
2023/03/28 01:09:22;;;;;;;12.85;12.05;;;3.30;99.90;;;;;;4733250;30;20907;-50
2023/03/28 01:11:48;;;;;;;13.25;12.27;;;3.30;99.90;;;;;;4711800;30;20293;-48
2023/03/28 01:14:18;;;;;;;12.30;11.70;;;3.30;99.90;;;;;;4731123;30;20201;-46
2023/03/28 01:16:46;;;;;;;12.60;11.90;;;3.30;99.90;;;;;;4737939;30;20180;-49
2023/03/28 01:19:50;;;;;;;12.95;12.02;;;3.40;99.90;;;;;;4731701;30;20505;-49
2023/03/28 01:22:40;;;;;;;12.70;11.90;;;3.30;99.90;;;;;;4727524;30;20575;-51
2023/03/28 01:25:33;;;;;;;12.52;11.82;;;3.30;99.90;;;;;;4740496;30;20201;-48
2023/03/28 01:28:12;;;;;;;13.55;12.50;;;3.30;99.90;;;;;;4733477;30;20243;-50
2023/03/28 01:31:12;;;;;;;13.10;12.30;;;3.40;99.90;;;;;;4732640;30;20632;-51
2023/03/28 01:34:01;;;;;;;13.05;12.35;;;3.20;99.90;;;;;;4728718;30;20190;-47
2023/03/28 01:36:55;;;;;;;13.52;12.57;;;3.20;99.90;;;;;;4727960;30;20214;-48
2023/03/28 01:39:50;;;;;;;13.75;12.90;;;3.20;99.90;;;;;;4726962;30;21101;-52
2023/03/28 01:43:01;;;;;;;13.93;13.00;;;3.20;99.90;;;;;;4725415;30;20201;-54
2023/03/28 01:45:47;;;;;;;12.88;12.23;;;3.20;99.90;;;;;;4709371;30;21048;-47
2023/03/28 01:48:37;;;;;;;13.70;12.77;;;3.20;99.90;;;;;;4735069;30;20189;-41
2023/03/28 01:51:03;;;;;;;13.23;12.43;;;3.30;99.90;;;;;;4733219;30;20221;-43
2023/03/28 01:53:29;;;;;;;13.50;12.80;;;3.30;99.90;;;;;;4741086;30;20711;-41
2023/03/28 01:56:12;;;;;;;13.23;12.47;;;3.30;99.90;;;;;;4728120;30;20444;-44
2023/03/28 01:58:40;;;;;;;13.77;12.82;;;3.40;99.90;;;;;;4725961;30;20443;-43
2023/03/28 02:01:14;;;;;;;13.38;12.68;;;3.40;99.90;;;;;;4741125;30;20291;-42
2023/03/28 02:03:46;;;;;;;12.57;11.82;;;3.30;99.90;;;;;;4733353;30;20197;-43
2023/03/28 02:06:13;;;;;;;13.60;12.52;;;3.40;99.90;;;;;;4735838;30;20653;-42
2023/03/28 02:08:42;;;;;;;13.60;12.80;;;3.40;99.90;;;;;;4724347;30;21001;-41
2023/03/28 02:11:09;;;;;;;12.68;11.75;;;3.40;99.90;;;;;;4724514;30;20725;-42
2023/03/28 02:13:45;;;;;;;13.30;12.50;;;3.40;99.90;;;;;;4725514;30;20580;-43
2023/03/28 02:16:12;;;;;;;12.90;12.10;;;3.40;99.90;;;;;;4728333;30;20201;-42
2023/03/28 02:18:44;;;;;;;12.75;12.05;;;3.40;99.90;;;;;;4732000;30;20196;-45
2023/03/28 02:21:17;;;;;;;12.50;11.75;;;3.40;99.90;;;;;;4739156;30;20279;-42
2023/03/28 02:23:49;;;;;;;12.82;12.13;;;3.40;99.90;;;;;;4733484;30;20219;-45
2023/03/28 02:26:16;;;;;;;13.02;11.82;;;3.40;99.90;;;;;;4740234;30;20197;-45
2023/03/28 02:28:44;;;;;;;12.77;12.05;;;3.40;99.90;;;;;;4733681;30;20201;-44
2023/03/28 02:31:10;;;;;;;13.25;12.45;;;3.40;99.90;;;;;;4734855;30;20204;-42
2023/03/28 02:33:40;;;;;;;13.73;12.52;;;3.40;99.90;;;;;;4735018;30;20541;-40
2023/03/28 02:36:09;;;;;;;12.77;11.93;;;3.30;99.90;;;;;;4727321;30;20200;-42
2023/03/28 02:38:50;;;;;;;13.27;12.48;;;3.40;99.90;;;;;;4724726;30;20606;-42
2023/03/28 02:41:42;;;;;;;14.38;13.20;;;3.40;99.90;;;;;;4731262;30;20189;-44
2023/03/28 02:44:17;;;;;;;13.52;12.45;;;3.40;99.90;;;;;;4721684;30;20534;-43
2023/03/28 02:46:45;;;;;;;13.43;12.38;;;3.40;99.90;;;;;;4732699;30;20228;-44
2023/03/28 02:49:24;;;;;;;13.65;12.85;;;3.30;99.90;;;;;;4730221;30;20220;-41
2023/03/28 02:52:09;;;;;;;13.80;12.73;;;3.20;99.90;;;;;;4723910;30;20186;-43
2023/03/28 02:54:55;;;;;;;13.15;12.15;;;3.10;99.90;;;;;;4736146;30;21147;-41
2023/03/28 02:57:35;;;;;;;13.75;12.75;;;3.10;99.90;;;;;;4724230;30;20228;-40
2023/03/28 03:00:11;;;;;;;14.27;13.18;;;3.00;99.90;;;;;;4727696;30;20203;-42
2023/03/28 03:02:39;;;;;;;12.98;11.88;;;3.00;99.90;;;;;;4725261;30;20189;-43
2023/03/28 03:05:05;;;;;;;12.25;11.50;;;3.00;99.90;;;;;;4737687;30;20193;-48
2023/03/28 03:07:31;;;;;;;12.38;11.68;;;2.90;99.90;;;;;;4723949;30;20196;-52
2023/03/28 03:09:57;;;;;;;12.40;11.50;;;2.80;99.90;;;;;;4723666;30;20707;-46
2023/03/28 03:12:23;;;;;;;11.85;11.07;;;2.80;99.90;;;;;;4720967;30;20189;-48
2023/03/28 03:14:49;;;;;;;13.47;12.30;;;2.70;99.90;;;;;;4728363;30;20189;-49
2023/03/28 03:17:18;;;;;;;13.93;12.70;;;2.70;99.90;;;;;;4731638;30;20749;-51
2023/03/28 03:19:44;;;;;;;12.93;12.00;;;2.60;99.90;;;;;;4726833;30;20200;-45
2023/03/28 03:22:10;;;;;;;12.90;11.80;;;2.50;99.90;;;;;;4733895;30;20201;-49
2023/03/28 03:24:36;;;;;;;13.70;12.80;;;2.60;99.90;;;;;;4724645;30;20197;-47
2023/03/28 03:27:02;;;;;;;12.97;12.00;;;2.60;99.90;;;;;;4731306;30;20215;-53
2023/03/28 03:29:28;;;;;;;12.85;11.85;;;2.50;99.90;;;;;;4728753;30;20228;-49
2023/03/28 03:31:54;;;;;;;12.97;12.03;;;2.60;99.90;;;;;;4734632;30;20257;-53
2023/03/28 03:34:20;;;;;;;12.63;11.73;;;2.60;99.90;;;;;;4725711;30;20211;-46
2023/03/28 03:36:46;;;;;;;13.45;12.55;;;2.60;99.90;;;;;;4718470;30;20194;-46
2023/03/28 03:39:12;;;;;;;13.80;12.87;;;2.60;99.90;;;;;;4727242;30;20258;-51
2023/03/28 03:41:37;;;;;;;12.23;11.50;;;2.60;99.90;;;;;;4721993;30;20550;-49
2023/03/28 03:44:03;;;;;;;11.33;10.63;;;2.50;99.90;;;;;;4737516;30;20196;-49
2023/03/28 03:46:29;;;;;;;11.70;11.00;;;2.40;99.90;;;;;;4728870;30;20291;-50
2023/03/28 03:48:55;;;;;;;10.57;9.95;;;2.20;99.90;;;;;;4731395;30;20543;-41
2023/03/28 03:51:20;;;;;;;10.43;9.83;;;2.20;99.90;;;;;;4725567;30;20198;-42
2023/03/28 03:53:49;;;;;;;11.67;11.07;;;2.00;99.90;;;;;;4733598;30;20254;-42
2023/03/28 03:56:15;;;;;;;10.00;9.50;;;2.00;99.90;;;;;;4739944;30;20185;-41
2023/03/28 03:58:40;;;;;;;11.33;10.70;;;2.00;99.90;;;;;;4733176;30;20217;-43
2023/03/28 04:01:08;;;;;;;11.13;10.63;;;1.90;99.90;;;;;;4726449;30;20797;-46
2023/03/28 04:03:34;;;;;;;11.23;10.63;;;1.80;99.90;;;;;;4732876;30;20189;-42
2023/03/28 04:06:00;;;;;;;10.90;10.20;;;1.70;99.90;;;;;;4732941;30;20264;-44
2023/03/28 04:08:26;;;;;;;10.43;9.82;;;1.80;99.90;;;;;;4733505;30;20256;-41
2023/03/28 04:10:52;;;;;;;11.33;10.53;;;1.70;99.90;;;;;;4730510;30;20303;-43
2023/03/28 04:13:17;;;;;;;9.43;8.93;;;1.70;99.90;;;;;;4730111;30;20741;-43
2023/03/28 04:15:46;;;;;;;11.33;10.53;;;1.70;99.90;;;;;;4732506;30;20197;-43
2023/03/28 04:18:14;;;;;;;11.60;10.80;;;1.60;99.90;;;;;;4718446;30;20549;-41
2023/03/28 04:20:40;;;;;;;10.68;9.98;;;1.70;99.90;;;;;;4728686;30;20193;-40
2023/03/28 04:23:07;;;;;;;10.90;10.20;;;1.70;99.90;;;;;;4724454;30;20584;-41
2023/03/28 04:25:33;;;;;;;10.35;9.75;;;1.80;99.90;;;;;;4727743;30;20181;-41
2023/03/28 04:28:00;;;;;;;10.73;9.93;;;1.80;99.90;;;;;;4738550;30;20213;-44
2023/03/28 04:30:26;;;;;;;10.98;10.38;;;1.90;99.90;;;;;;4724050;30;21706;-42
2023/03/28 04:32:53;;;;;;;10.65;10.05;;;1.90;99.90;;;;;;4731002;30;20201;-42
2023/03/28 04:35:19;;;;;;;11.82;11.23;;;2.00;99.90;;;;;;4735841;30;21152;-42
2023/03/28 04:37:46;;;;;;;11.50;10.88;;;1.90;99.90;;;;;;4740371;30;20249;-41
2023/03/28 04:40:14;;;;;;;10.90;10.30;;;2.00;99.90;;;;;;4740772;30;20222;-41
2023/03/28 04:42:40;;;;;;;11.77;10.95;;;2.00;99.90;;;;;;4729319;30;20201;-43
2023/03/28 04:45:07;;;;;;;11.37;10.57;;;2.00;99.90;;;;;;4733611;30;21297;-41
2023/03/28 04:47:33;;;;;;;12.32;11.63;;;2.00;99.90;;;;;;4742597;30;20535;-41
2023/03/28 04:49:59;;;;;;;11.57;10.88;;;2.00;99.90;;;;;;4725620;30;20347;-40
2023/03/28 04:52:25;;;;;;;12.30;11.63;;;2.00;99.90;;;;;;4727881;30;20659;-42
2023/03/28 04:54:50;;;;;;;12.57;11.77;;;2.10;99.90;;;;;;4729144;30;20554;-42
2023/03/28 04:57:16;;;;;;;10.80;10.30;;;2.10;99.90;;;;;;4739040;30;20425;-42
2023/03/28 04:59:43;;;;;;;11.73;11.13;;;2.20;99.90;;;;;;4742635;30;20242;-41
2023/03/28 05:02:09;;;;;;;11.63;10.93;;;2.30;99.90;;;;;;4740319;30;21442;-44
2023/03/28 05:04:36;;;;;;;11.20;10.57;;;2.30;99.90;;;;;;4736753;30;20200;-41
2023/03/28 05:07:02;;;;;;;11.30;10.55;;;2.20;99.90;;;;;;4742156;30;20276;-41
2023/03/28 05:09:28;;;;;;;11.10;10.50;;;2.20;99.90;;;;;;4741673;30;20228;-41
2023/03/28 05:11:55;;;;;;;11.32;10.63;;;2.20;99.90;;;;;;4742268;30;21230;-41
2023/03/28 05:14:21;;;;;;;10.88;10.15;;;2.30;99.90;;;;;;4734118;30;20192;-43
2023/03/28 05:16:46;;;;;;;11.53;10.63;;;2.30;99.90;;;;;;4739199;30;20201;-44
2023/03/28 05:19:12;;;;;;;12.83;11.97;;;2.30;99.90;;;;;;4739187;30;20201;-44
2023/03/28 05:21:39;;;;;;;11.45;10.75;;;2.30;99.90;;;;;;4740939;30;20193;-46
2023/03/28 05:24:07;;;;;;;11.52;10.82;;;2.30;99.90;;;;;;4734441;30;20193;-41
2023/03/28 05:26:33;;;;;;;11.05;10.30;;;2.30;99.90;;;;;;4728887;30;20181;-41
2023/03/28 05:28:58;;;;;;;11.20;10.60;;;2.30;99.90;;;;;;4742016;30;20266;-41
2023/03/28 05:31:24;;;;;;;10.73;10.13;;;2.20;99.90;;;;;;4731672;30;20462;-41
2023/03/28 05:33:51;;;;;;;11.73;10.93;;;2.30;99.90;;;;;;4734378;30;20184;-42
2023/03/28 05:36:17;;;;;;;9.20;8.60;;;2.20;99.90;;;;;;4740660;30;20538;-41
2023/03/28 05:38:43;;;;;;;9.77;8.88;;;2.20;99.90;;;;;;4737928;30;20193;-41
2023/03/28 05:41:09;;;;;;;9.83;9.13;;;2.20;99.90;;;;;;4739144;30;20188;-43
2023/03/28 05:43:34;;;;;;;9.67;9.17;;;2.20;99.90;;;;;;4741838;30;20536;-42
2023/03/28 05:46:00;;;;;;;9.40;8.90;;;2.20;99.90;;;;;;4741594;30;20240;-41
2023/03/28 05:48:26;;;;;;;9.70;9.20;;;2.20;99.90;;;;;;4725889;30;20292;-43
2023/03/28 05:50:51;;;;;;;9.50;8.73;;;2.20;99.90;;;;;;4737603;30;20220;-43
2023/03/28 05:53:17;;;;;;;9.70;9.10;;;2.20;99.90;;;;;;4733899;30;20210;-41
2023/03/28 05:55:42;;;;;;;9.20;8.70;;;2.20;99.90;;;;;;4724414;30;20196;-42
2023/03/28 05:58:08;;;;;;;10.37;9.67;;;2.30;99.90;;;;;;4722890;30;20197;-42
2023/03/28 06:00:34;;;;;;;10.53;9.73;;;2.30;99.90;;;;;;4738905;30;20199;-41
2023/03/28 06:03:00;;;;;;;10.60;10.00;;;2.40;99.90;;;;;;4736673;30;20543;-41
2023/03/28 06:05:25;;;;;;;9.82;9.15;;;2.50;99.90;;;;;;4741454;30;20200;-46
2023/03/28 06:07:52;;;;;;;10.70;10.00;;;2.40;99.90;;;;;;4741471;30;20436;-48
2023/03/28 06:10:18;;;;;;;9.80;9.00;;;2.50;99.90;;;;;;4734545;30;20216;-48
2023/03/28 06:12:44;;;;;;;10.57;9.77;;;2.50;99.90;;;;;;4741013;30;20199;-44
2023/03/28 06:15:10;;;;;;;10.43;9.63;;;2.50;99.90;;;;;;4730235;30;20201;-44
2023/03/28 06:17:36;;;;;;;10.10;9.50;;;2.50;99.90;;;;;;4734963;30;20287;-50
2023/03/28 06:20:05;;;;;;;9.90;9.40;;;2.50;99.90;;;;;;4737099;30;20214;-51
2023/03/28 06:22:30;;;;;;;10.02;9.30;;;2.40;99.90;;;;;;4739014;30;20842;-52
2023/03/28 06:24:56;;;;;;;10.50;9.87;;;2.40;99.90;;;;;;4740540;30;20205;-48
2023/03/28 06:27:21;;;;;;;10.83;10.23;;;2.40;99.90;;;;;;4732811;30;21020;-51
2023/03/28 06:29:47;;;;;;;10.40;9.60;;;2.50;99.90;;;;;;4741345;30;20220;-40
2023/03/28 06:32:14;;;;;;;10.77;10.23;;;2.40;99.90;;;;;;4741200;30;20254;-41
2023/03/28 06:34:39;;;;;;;10.55;9.95;;;2.50;99.90;;;;;;4741318;30;20196;-40
2023/03/28 06:37:05;;;;;;;9.40;8.90;;;2.60;99.90;;;;;;4736265;30;20586;-43
2023/03/28 06:39:31;;;;;;;10.55;9.88;;;2.60;99.90;;;;;;4737774;30;20243;-41
2023/03/28 06:42:01;;;;;;;10.38;9.73;;;2.50;99.90;;;;;;4741282;30;20689;-40
2023/03/28 06:44:26;;;;;;;10.38;9.77;;;2.50;99.90;;;;;;4741068;30;20188;-42
2023/03/28 06:46:52;;;;;;;11.50;10.80;;;2.50;99.90;;;;;;4740716;30;20233;-43
2023/03/28 06:49:18;;;;;;;11.10;10.40;;;2.40;99.90;;;;;;4740662;30;20704;-41
2023/03/28 06:51:43;;;;;;;10.50;9.90;;;2.40;99.90;;;;;;4733219;30;20641;-42
2023/03/28 06:54:09;;;;;;;10.73;10.13;;;2.60;99.90;;;;;;4719761;30;20200;-41
2023/03/28 06:56:34;;;;;;;10.53;9.90;;;2.60;99.90;;;;;;4724008;30;20247;-41
2023/03/28 06:59:00;;;;;;;9.93;9.43;;;2.70;99.90;;;;;;4729491;30;20275;-42
2023/03/28 07:01:25;;;;;;;10.30;9.60;;;2.90;99.90;;;;;;4739965;30;20201;-41
2023/03/28 07:03:51;;;;;;;10.57;10.00;;;2.90;99.90;;;;;;4730097;30;20692;-40
2023/03/28 07:06:17;;;;;;;10.10;9.50;;;3.00;99.90;;;;;;4740671;30;20200;-41
2023/03/28 07:08:42;;;;;;;10.70;9.90;;;3.10;99.90;;;;;;4740227;30;20208;-41
2023/03/28 07:11:08;;;;;;;10.53;9.93;;;3.20;99.90;;;;;;4740691;30;20220;-41
2023/03/28 07:13:34;;;;;;;10.90;10.10;;;3.20;99.90;;;;;;4737989;30;20189;-42
2023/03/28 07:16:18;;;;;;;10.90;10.23;;;3.30;99.90;;;;;;4737396;30;20203;-40
2023/03/28 07:18:43;;;;;;;10.35;9.75;;;3.20;99.90;;;;;;4737946;30;20201;-41
2023/03/28 07:21:11;;;;;;;10.40;9.90;;;3.30;99.90;;;;;;4738764;30;20205;-42
2023/03/28 07:23:38;;;;;;;11.30;10.55;;;3.30;99.90;;;;;;4730602;30;20213;-41
2023/03/28 07:26:05;;;;;;;11.10;10.40;;;3.30;99.90;;;;;;4740480;30;20197;-41
2023/03/28 07:28:31;;;;;;;11.15;10.40;;;3.30;99.90;;;;;;4724391;30;20298;-40
2023/03/28 07:31:00;;;;;;;11.73;10.90;;;3.40;99.90;;;;;;4740305;30;20539;-40
2023/03/28 07:33:26;;;;;;;11.43;10.55;;;3.40;99.90;;;;;;4740102;30;20423;-41
2023/03/28 07:35:52;;;;;;;11.02;10.43;;;3.40;99.90;;;;;;4740340;30;20193;-41
2023/03/28 07:38:18;;;;;;;11.50;10.80;;;3.60;99.90;;;;;;4740425;30;20208;-41
2023/03/28 07:40:44;;;;;;;10.60;10.10;;;3.50;99.90;;;;;;4737809;30;20189;-41
2023/03/28 07:43:11;;;;;;;11.27;10.55;;;3.60;99.90;;;;;;4740188;30;20211;-42
2023/03/28 07:45:36;;;;;;;10.85;10.25;;;3.70;99.90;;;;;;4740079;30;20224;-41
2023/03/28 07:48:04;;;;;;;10.43;9.83;;;3.60;99.90;;;;;;4740558;30;20327;-43
2023/03/28 07:50:30;;;;;;;11.30;10.48;;;3.60;99.90;;;;;;4734941;30;20228;-41
2023/03/28 07:52:59;;;;;;;11.05;10.45;;;3.70;99.90;;;;;;4724241;30;20228;-41
2023/03/28 07:55:26;;;;;;;11.40;10.70;;;3.70;99.90;;;;;;4729640;30;20192;-41
2023/03/28 07:57:52;;;;;;;11.40;10.70;;;3.70;99.90;;;;;;4739318;30;20572;-40
2023/03/28 08:00:21;;;;;;;10.77;10.27;;;3.70;99.90;;;;;;4740082;30;20200;-41
2023/03/28 08:02:47;;;;;;;11.20;10.60;;;3.80;99.90;;;;;;4742397;30;20246;-41
2023/03/28 08:05:13;;;;;;;11.40;10.70;;;4.00;99.90;;;;;;4743689;30;21209;-41
2023/03/28 08:07:40;;;;;;;10.98;10.20;;;4.20;99.90;;;;;;4740324;30;20243;-42
2023/03/28 08:10:08;;;;;;;10.85;10.25;;;4.50;99.90;;;;;;4743351;30;20219;-42
2023/03/28 08:12:33;;;;;;;9.38;8.98;;;4.70;99.90;;;;;;4743469;30;20271;-43
2023/03/28 08:14:59;;;;;;;10.60;10.00;;;4.90;99.90;;;;;;4732687;30;20250;-41
2023/03/28 08:17:25;;;;;;;10.97;10.30;;;5.10;99.20;;;;;;4743366;30;20717;-42
2023/03/28 08:19:51;;;;;;;10.60;10.07;;;5.30;95.70;;;;;;4742853;30;20243;-42
2023/03/28 08:22:17;;;;;;;9.80;9.20;;;5.40;93.10;;;;;;4736347;30;20209;-44
2023/03/28 08:24:43;;;;;;;10.00;9.40;;;5.20;92.10;;;;;;4735142;30;20483;-42
2023/03/28 08:27:08;;;;;;;9.80;9.30;;;5.30;92.90;;;;;;4743326;30;20843;-42
2023/03/28 08:29:34;;;;;;;10.37;9.90;;;5.10;90.00;;;;;;4743136;30;20274;-41
2023/03/28 08:32:00;;;;;;;11.30;10.23;;;5.10;90.10;;;;;;4743507;30;20200;-43
2023/03/28 08:34:25;;;;;;;10.50;9.90;;;5.00;92.40;;;;;;4743213;30;20466;-42
2023/03/28 08:36:52;;;;;;;10.17;9.67;;;4.80;96.00;;;;;;4743174;30;20884;-42
2023/03/28 08:39:17;;;;;;;10.40;9.88;;;4.90;94.80;;;;;;4743244;30;20732;-41
2023/03/28 08:42:08;;;;;;;11.10;10.50;;;5.00;95.00;;;;;;4742946;30;20193;-44
2023/03/28 08:44:58;;;;;;;10.07;9.57;;;4.90;94.30;;;;;;4743204;30;20196;-41
2023/03/28 08:47:34;;;;;;;9.80;9.25;;;4.80;93.40;;;;;;4743041;30;20244;-41
2023/03/28 08:50:07;;;;;;;10.40;9.90;;;4.80;90.60;;;;;;4742698;30;21293;-42
2023/03/28 08:52:33;;;;;;;9.95;9.35;;;5.10;87.50;;;;;;4730930;30;20327;-43
2023/03/28 08:55:39;;;;;;;11.10;10.50;;;5.60;90.30;;;;;;4738724;30;20190;-42
2023/03/28 08:58:05;;;;;;;10.50;10.00;;;6.60;82.80;;;;;;4734704;30;20220;-42
2023/03/28 09:00:35;;;;;;;10.90;10.35;;;7.10;71.90;;;;;;4739547;30;20187;-43
2023/03/28 09:03:07;;;;;;;10.50;10.00;;;6.90;59.00;;;;;;4743119;30;20188;-40
2023/03/28 09:05:42;;;;;;;10.40;9.80;;;7.10;59.10;;;;;;4742395;30;21025;-43
2023/03/28 09:08:15;;;;;;;10.60;10.10;;;7.50;60.70;;;;;;4742783;30;20539;-43
2023/03/28 09:10:46;;;;;;;10.90;10.50;;;8.10;60.30;;;;;;4742324;30;20562;-42
2023/03/28 09:13:36;;;;;;;10.97;10.47;;;8.30;56.90;;;;;;4741222;30;20480;-42
2023/03/28 09:16:40;;;;;;;11.57;11.00;;;8.60;55.60;;;;;;4734186;30;20516;-43
2023/03/28 09:19:32;;;;;;;12.17;11.37;;;8.40;56.70;;;;;;4698549;30;21177;-42
2023/03/28 09:22:23;;;;;;;11.10;10.60;;;7.90;57.10;;;;;;4736989;30;21040;-43
2023/03/28 09:25:01;;;;;;;10.63;10.03;;;8.00;59.30;;;;;;4741830;30;20445;-40
2023/03/28 09:27:29;;;;;;;10.10;9.70;;;8.50;56.70;;;;;;4742313;30;20433;-43
2023/03/28 09:30:02;;;;;;;10.50;10.10;;;9.00;54.80;;;;;;4742432;30;20477;-41
2023/03/28 09:32:33;;;;;;;11.43;10.73;;;9.20;51.60;;;;;;4742625;30;20430;-44
2023/03/28 09:34:59;;;;;;;11.00;10.50;;;9.20;49.40;;;;;;4742335;30;20427;-43
2023/03/28 09:37:25;;;;;;;10.47;9.87;;;9.10;46.60;;;;;;4742374;30;20859;-42
2023/03/28 09:39:53;;;;;;;10.60;10.10;;;9.50;48.00;;;;;;4741922;30;20434;-45
2023/03/28 09:42:26;;;;;;;10.80;10.40;;;9.80;47.70;;;;;;4732453;30;20193;-43
2023/03/28 09:45:03;;;;;;;11.00;10.50;;;10.90;47.00;;;;;;4741512;30;21007;-45
2023/03/28 09:47:29;;;;;;;10.70;10.20;;;11.00;42.40;;;;;;4741953;30;20571;-44
2023/03/28 09:49:55;;;;;;;10.90;10.40;;;10.50;41.30;;;;;;4741910;30;20488;-42
2023/03/28 09:52:21;;;;;;;10.70;10.30;;;10.60;41.30;;;;;;4737454;30;20196;-41
2023/03/28 09:54:47;;;;;;;9.70;9.20;;;11.00;41.40;;;;;;4736381;30;20525;-42
2023/03/28 09:57:13;;;;;;;9.80;9.40;;;10.90;34.70;;;;;;4741916;30;20195;-42
2023/03/28 09:59:39;;;;;;;9.90;9.50;;;10.20;34.10;;;;;;4738847;30;20865;-42
2023/03/28 10:02:31;;;;;;;10.50;10.10;;;10.20;36.20;;;;;;4741836;30;20912;-41
2023/03/28 10:04:57;;;;;;;10.00;9.60;;;9.80;37.70;;;;;;4741668;30;20514;-44
2023/03/28 10:07:30;;;;;;;10.20;9.80;;;10.40;38.00;;;;;;4741740;30;20432;-42
2023/03/28 10:09:57;;;;;;;10.33;9.93;;;10.80;36.80;;;;;;4741385;30;20481;-42
2023/03/28 10:12:37;;;;;;;10.37;9.97;;;11.30;35.40;;;;;;4740800;30;20438;-41
2023/03/28 10:15:03;;;;;;;11.00;10.50;;;10.70;32.00;;;;;;4730470;30;20869;-44
2023/03/28 10:17:31;;;;;;;10.13;9.73;;;10.30;34.90;;;;;;4741493;30;20429;-42
2023/03/28 10:20:04;;;;;;;9.47;9.10;;;10.20;34.10;;;;;;4738428;30;20455;-40
2023/03/28 10:22:33;;;;;;;10.30;9.70;;;10.20;35.10;;;;;;4737609;30;20937;-44
2023/03/28 10:24:59;;;;;;;9.30;8.80;;;10.50;35.40;;;;;;4738627;30;20448;-42
2023/03/28 10:27:36;;;;;;;9.43;9.10;;;10.80;33.30;;;;;;4741364;30;20431;-42
2023/03/28 10:30:29;;;;;;;9.23;8.83;;;10.20;32.50;;;;;;4737760;30;20476;-49
2023/03/28 10:33:19;;;;;;;9.97;9.57;;;9.50;34.50;;;;;;4737188;30;20450;-51
2023/03/28 10:36:09;;;;;;;9.50;9.20;;;9.00;36.70;;;;;;4741070;30;20961;-48
2023/03/28 10:38:46;;;;;;;9.87;9.37;;;9.60;37.20;;;;;;4741096;30;20491;-48
2023/03/28 10:41:23;;;;;;;11.00;10.50;;;9.80;36.30;;;;;;4740686;30;20431;-51
2023/03/28 10:43:49;;;;;;;10.57;10.17;;;9.60;36.40;;;;;;4741012;30;20486;-44
2023/03/28 10:46:19;;;;;;;10.40;10.00;;;9.90;36.70;;;;;;4740680;30;20479;-42
2023/03/28 10:48:50;;;;;;;10.00;9.60;;;10.10;36.10;;;;;;4740899;30;20425;-44
2023/03/28 10:51:22;;;;;;;9.90;9.50;;;10.40;35.10;;;;;;4736491;30;20551;-43
2023/03/28 10:54:00;;;;;;;9.77;9.37;;;10.60;32.40;;;;;;4731896;30;20604;-42
2023/03/28 10:56:37;;;;;;;10.00;9.60;;;10.50;30.40;;;;;;4733830;30;20472;-45
2023/03/28 10:59:16;;;;;;;10.10;9.70;;;11.00;32.70;;;;;;4733462;30;20478;-45
2023/03/28 11:02:08;;;;;;;9.50;9.10;;;11.10;29.40;;;;;;4736406;30;20456;-43
2023/03/28 11:04:39;;;;;;;9.80;9.40;;;11.70;30.00;;;;;;4722569;30;20802;-41
2023/03/28 11:07:05;;;;;;;9.47;9.10;;;12.30;30.10;;;;;;4740530;30;20533;-41
2023/03/28 11:09:45;;;;;;;9.60;9.20;;;13.20;28.60;;;;;;4724853;30;21062;-44
2023/03/28 11:12:39;;;;;;;10.13;9.73;;;13.10;27.60;;;;;;4739130;30;20200;-45
2023/03/28 11:15:23;;;;;;;9.90;9.50;;;12.60;27.50;;;;;;4738697;30;20441;-43
2023/03/28 11:17:57;;;;;;;10.30;9.90;;;13.00;28.50;;;;;;4727065;30;20895;-42
2023/03/28 11:20:40;;;;;;;10.30;9.90;;;11.80;26.60;;;;;;4723704;30;20791;-42
2023/03/28 11:23:37;;;;;;;9.90;9.53;;;11.60;28.90;;;;;;4740950;30;20437;-43
2023/03/28 11:26:11;;;;;;;9.80;9.50;;;11.50;29.10;;;;;;4740601;30;20425;-41
2023/03/28 11:29:07;;;;;;;10.30;9.90;;;11.60;29.40;;;;;;4740474;30;20518;-42
2023/03/28 11:32:02;;;;;;;10.00;9.60;;;11.90;28.40;;;;;;4740437;30;20549;-42
2023/03/28 11:34:31;;;;;;;10.93;10.53;;;13.00;28.40;;;;;;4740447;30;20427;-45
2023/03/28 11:37:06;;;;;;;10.47;10.07;;;13.60;26.70;;;;;;4739759;30;20479;-42
2023/03/28 11:39:37;;;;;;;10.50;10.00;;;13.90;28.10;;;;;;4721578;30;20451;-41
2023/03/28 11:42:11;;;;;;;10.50;10.10;;;14.00;27.80;;;;;;4739868;30;20525;-50
2023/03/28 11:44:43;;;;;;;10.80;10.40;;;13.70;25.50;;;;;;4740020;30;20493;-48
2023/03/28 11:47:22;;;;;;;10.77;10.37;;;13.20;26.20;;;;;;4725721;30;20514;-49
2023/03/28 11:49:57;;;;;;;10.40;10.00;;;12.50;25.50;;;;;;4723086;30;20479;-52
2023/03/28 11:52:30;;;;;;;10.33;9.90;;;11.70;27.00;;;;;;4722903;30;20427;-42
2023/03/28 11:55:25;;;;;;;10.70;10.20;;;11.20;28.50;;;;;;4739969;30;20494;-41
2023/03/28 11:58:04;;;;;;;10.53;10.03;;;11.50;29.50;;;;;;4729013;30;20427;-39
2023/03/28 12:00:45;;;;;;;10.40;9.90;;;12.20;29.20;;;;;;4724387;30;20461;-41
2023/03/28 12:03:30;;;;;;;10.30;9.90;;;13.00;28.40;;;;;;4729394;30;20996;-43
2023/03/28 12:06:17;;;;;;;10.60;10.17;;;13.50;26.20;;;;;;4735109;30;20926;-42
2023/03/28 12:08:48;;;;;;;10.80;10.30;;;13.60;27.00;;;;;;4739140;30;20434;-43
2023/03/28 12:11:30;;;;;;;10.97;10.40;;;14.00;27.00;;;;;;4729417;30;21016;-40
2023/03/28 12:14:37;;;;;;;10.33;9.93;;;14.30;25.80;;;;;;4739936;30;20459;-42
2023/03/28 12:17:15;;;;;;;10.67;10.17;;;14.70;26.70;;;;;;4717603;30;20459;-42
2023/03/28 12:19:41;;;;;;;11.90;11.00;;;15.30;26.40;;;;;;4723491;30;20791;-42
2023/03/28 12:22:16;;;;;;;10.83;10.43;;;15.50;24.20;;;;;;4728882;30;20418;-42
2023/03/28 12:24:45;;;;;;;11.30;10.80;;;15.90;24.10;;;;;;4739938;30;20194;-41
2023/03/28 12:27:19;;;;;;;10.30;9.90;;;16.20;24.30;;;;;;4740213;30;21342;-40
2023/03/28 12:29:58;;;;;;;11.10;10.60;;;16.10;25.20;;;;;;4739809;30;20472;-41
2023/03/28 12:32:30;;;;;;;10.40;10.00;;;16.40;24.00;;;;;;4739968;30;20431;-40
2023/03/28 12:34:58;;;;;;;10.73;10.23;;;16.30;23.30;;;;;;4740253;30;20438;-44
2023/03/28 12:37:41;;;;;;;10.43;9.93;;;16.40;24.70;;;;;;4739985;30;21211;-48
2023/03/28 12:40:35;;;;;;;10.83;10.30;;;16.60;24.50;;;;;;4739634;30;20434;-44
2023/03/28 12:43:02;;;;;;;11.27;10.77;;;16.50;23.00;;;;;;4739596;30;20423;-42
2023/03/28 12:45:37;;;;;;;10.10;9.70;;;17.10;24.00;;;;;;4736201;30;20439;-42
2023/03/28 12:48:08;;;;;;;10.90;10.40;;;17.60;23.10;;;;;;4725908;30;20458;-41
2023/03/28 12:50:49;;;;;;;10.20;9.80;;;17.00;21.30;;;;;;4736603;30;20477;-41
2023/03/28 12:53:16;;;;;;;10.93;10.47;;;16.60;21.50;;;;;;4725912;30;20450;-42
2023/03/28 12:55:43;;;;;;;10.87;10.47;;;16.00;22.40;;;;;;4726526;30;20946;-41
2023/03/28 12:58:24;;;;;;;11.73;10.93;;;16.20;22.30;;;;;;4726065;30;20431;-42
2023/03/28 13:01:06;;;;;;;11.20;10.80;;;16.40;23.20;;;;;;4742699;30;20433;-42